sensor_id;sensor_type;location;lat;lon;timestamp;P1;durP1;ratioP1;P2;durP2;ratioP2
9418;SDS011;4748;50.802;7.132;2023-04-28T00:01:34;0.97;;;0.93;;
9418;SDS011;4748;50.802;7.132;2023-04-28T00:04:00;2.63;;;0.80;;
9418;SDS011;4748;50.802;7.132;2023-04-28T00:06:25;1.70;;;1.20;;
9418;SDS011;4748;50.802;7.132;2023-04-28T00:08:51;1.00;;;1.00;;
9418;SDS011;4748;50.802;7.132;2023-04-28T00:11:16;1.33;;;1.20;;
9418;SDS011;4748;50.802;7.132;2023-04-28T00:13:41;1.17;;;1.00;;
9418;SDS011;4748;50.802;7.132;2023-04-28T00:16:07;4.60;;;1.20;;
9418;SDS011;4748;50.802;7.132;2023-04-28T00:18:32;3.53;;;1.53;;
9418;SDS011;4748;50.802;7.132;2023-04-28T00:20:57;1.80;;;1.43;;
9418;SDS011;4748;50.802;7.132;2023-04-28T00:23:23;5.47;;;1.87;;
9418;SDS011;4748;50.802;7.132;2023-04-28T00:25:51;2.07;;;0.97;;
9418;SDS011;4748;50.802;7.132;2023-04-28T00:28:17;1.93;;;1.83;;
9418;SDS011;4748;50.802;7.132;2023-04-28T00:30:42;1.93;;;1.23;;
9418;SDS011;4748;50.802;7.132;2023-04-28T00:33:07;1.10;;;1.10;;
9418;SDS011;4748;50.802;7.132;2023-04-28T00:35:33;1.33;;;1.23;;
9418;SDS011;4748;50.802;7.132;2023-04-28T00:37:58;2.43;;;0.87;;
9418;SDS011;4748;50.802;7.132;2023-04-28T00:40:31;3.70;;;1.13;;
9418;SDS011;4748;50.802;7.132;2023-04-28T00:43:00;1.00;;;1.00;;
9418;SDS011;4748;50.802;7.132;2023-04-28T00:45:25;0.93;;;0.93;;
9418;SDS011;4748;50.802;7.132;2023-04-28T00:47:51;1.43;;;1.30;;
9418;SDS011;4748;50.802;7.132;2023-04-28T00:50:16;2.53;;;1.10;;
9418;SDS011;4748;50.802;7.132;2023-04-28T00:52:42;0.97;;;0.80;;
9418;SDS011;4748;50.802;7.132;2023-04-28T00:55:08;1.07;;;1.07;;
9418;SDS011;4748;50.802;7.132;2023-04-28T00:57:34;17.00;;;1.50;;
9418;SDS011;4748;50.802;7.132;2023-04-28T01:00:00;1.43;;;1.00;;
9418;SDS011;4748;50.802;7.132;2023-04-28T01:02:26;0.80;;;0.80;;
9418;SDS011;4748;50.802;7.132;2023-04-28T01:04:53;2.93;;;1.17;;
9418;SDS011;4748;50.802;7.132;2023-04-28T01:07:20;1.30;;;1.20;;
9418;SDS011;4748;50.802;7.132;2023-04-28T01:09:45;1.93;;;0.67;;
9418;SDS011;4748;50.802;7.132;2023-04-28T01:12:11;1.90;;;0.80;;
9418;SDS011;4748;50.802;7.132;2023-04-28T01:14:37;0.80;;;0.80;;
9418;SDS011;4748;50.802;7.132;2023-04-28T01:17:03;1.17;;;0.90;;
9418;SDS011;4748;50.802;7.132;2023-04-28T01:19:28;6.50;;;0.87;;
9418;SDS011;4748;50.802;7.132;2023-04-28T01:21:54;4.50;;;1.30;;
9418;SDS011;4748;50.802;7.132;2023-04-28T01:24:19;1.07;;;1.07;;
9418;SDS011;4748;50.802;7.132;2023-04-28T01:26:45;1.63;;;1.20;;
9418;SDS011;4748;50.802;7.132;2023-04-28T01:29:10;5.93;;;1.53;;
9418;SDS011;4748;50.802;7.132;2023-04-28T01:31:36;2.53;;;1.00;;
9418;SDS011;4748;50.802;7.132;2023-04-28T01:34:01;4.00;;;1.27;;
9418;SDS011;4748;50.802;7.132;2023-04-28T01:36:26;1.07;;;1.00;;
9418;SDS011;4748;50.802;7.132;2023-04-28T01:38:52;2.97;;;1.30;;
9418;SDS011;4748;50.802;7.132;2023-04-28T01:41:18;0.87;;;0.73;;
9418;SDS011;4748;50.802;7.132;2023-04-28T01:43:44;5.30;;;1.37;;
9418;SDS011;4748;50.802;7.132;2023-04-28T01:46:09;0.90;;;0.90;;
9418;SDS011;4748;50.802;7.132;2023-04-28T01:48:35;2.00;;;1.00;;
9418;SDS011;4748;50.802;7.132;2023-04-28T01:51:00;0.93;;;0.60;;
9418;SDS011;4748;50.802;7.132;2023-04-28T01:53:26;3.17;;;0.90;;
9418;SDS011;4748;50.802;7.132;2023-04-28T01:56:16;2.93;;;1.50;;
9418;SDS011;4748;50.802;7.132;2023-04-28T01:58:41;1.60;;;0.93;;
9418;SDS011;4748;50.802;7.132;2023-04-28T02:01:06;2.03;;;1.23;;
9418;SDS011;4748;50.802;7.132;2023-04-28T02:03:32;1.00;;;1.00;;
9418;SDS011;4748;50.802;7.132;2023-04-28T02:05:57;1.63;;;0.97;;
9418;SDS011;4748;50.802;7.132;2023-04-28T02:08:22;2.03;;;0.97;;
9418;SDS011;4748;50.802;7.132;2023-04-28T02:10:48;2.50;;;1.10;;
9418;SDS011;4748;50.802;7.132;2023-04-28T02:13:13;4.63;;;0.77;;
9418;SDS011;4748;50.802;7.132;2023-04-28T02:15:42;3.63;;;1.17;;
9418;SDS011;4748;50.802;7.132;2023-04-28T02:18:10;0.90;;;0.90;;
9418;SDS011;4748;50.802;7.132;2023-04-28T02:20:36;7.20;;;1.77;;
9418;SDS011;4748;50.802;7.132;2023-04-28T02:23:01;3.50;;;1.13;;
9418;SDS011;4748;50.802;7.132;2023-04-28T02:25:26;3.83;;;1.10;;
9418;SDS011;4748;50.802;7.132;2023-04-28T02:27:52;1.63;;;1.10;;
9418;SDS011;4748;50.802;7.132;2023-04-28T02:30:17;1.13;;;1.03;;
9418;SDS011;4748;50.802;7.132;2023-04-28T02:32:42;2.73;;;1.00;;
9418;SDS011;4748;50.802;7.132;2023-04-28T02:35:08;1.40;;;1.23;;
9418;SDS011;4748;50.802;7.132;2023-04-28T02:37:33;1.07;;;1.00;;
9418;SDS011;4748;50.802;7.132;2023-04-28T02:39:59;1.17;;;1.10;;
9418;SDS011;4748;50.802;7.132;2023-04-28T02:42:24;1.07;;;1.07;;
9418;SDS011;4748;50.802;7.132;2023-04-28T02:44:49;1.20;;;1.10;;
9418;SDS011;4748;50.802;7.132;2023-04-28T02:47:15;3.93;;;1.13;;
9418;SDS011;4748;50.802;7.132;2023-04-28T02:49:40;1.80;;;1.40;;
9418;SDS011;4748;50.802;7.132;2023-04-28T02:52:05;2.83;;;0.70;;
9418;SDS011;4748;50.802;7.132;2023-04-28T02:54:30;1.37;;;0.90;;
9418;SDS011;4748;50.802;7.132;2023-04-28T02:56:58;1.57;;;0.80;;
9418;SDS011;4748;50.802;7.132;2023-04-28T02:59:23;2.83;;;1.27;;
9418;SDS011;4748;50.802;7.132;2023-04-28T03:01:49;7.20;;;1.93;;
9418;SDS011;4748;50.802;7.132;2023-04-28T03:04:15;1.30;;;1.30;;
9418;SDS011;4748;50.802;7.132;2023-04-28T03:06:41;1.50;;;1.00;;
9418;SDS011;4748;50.802;7.132;2023-04-28T03:09:07;1.97;;;0.90;;
9418;SDS011;4748;50.802;7.132;2023-04-28T03:11:33;1.60;;;1.37;;
9418;SDS011;4748;50.802;7.132;2023-04-28T03:13:58;4.83;;;1.20;;
9418;SDS011;4748;50.802;7.132;2023-04-28T03:16:24;3.07;;;1.87;;
9418;SDS011;4748;50.802;7.132;2023-04-28T03:18:49;1.17;;;0.87;;
9418;SDS011;4748;50.802;7.132;2023-04-28T03:21:15;2.40;;;1.00;;
9418;SDS011;4748;50.802;7.132;2023-04-28T03:23:40;0.90;;;0.90;;
9418;SDS011;4748;50.802;7.132;2023-04-28T03:26:06;1.20;;;1.10;;
9418;SDS011;4748;50.802;7.132;2023-04-28T03:28:31;2.33;;;1.60;;
9418;SDS011;4748;50.802;7.132;2023-04-28T03:30:57;4.00;;;1.37;;
9418;SDS011;4748;50.802;7.132;2023-04-28T03:33:22;1.80;;;1.70;;
9418;SDS011;4748;50.802;7.132;2023-04-28T03:35:47;1.43;;;1.40;;
9418;SDS011;4748;50.802;7.132;2023-04-28T03:38:13;1.70;;;1.60;;
9418;SDS011;4748;50.802;7.132;2023-04-28T03:40:38;1.40;;;1.30;;
9418;SDS011;4748;50.802;7.132;2023-04-28T03:43:04;1.43;;;1.33;;
9418;SDS011;4748;50.802;7.132;2023-04-28T03:45:29;1.63;;;1.27;;
9418;SDS011;4748;50.802;7.132;2023-04-28T03:47:55;1.27;;;1.17;;
9418;SDS011;4748;50.802;7.132;2023-04-28T03:50:20;4.60;;;1.40;;
9418;SDS011;4748;50.802;7.132;2023-04-28T03:52:45;1.50;;;1.37;;
9418;SDS011;4748;50.802;7.132;2023-04-28T03:55:11;2.60;;;1.27;;
9418;SDS011;4748;50.802;7.132;2023-04-28T03:57:36;1.47;;;1.40;;
9418;SDS011;4748;50.802;7.132;2023-04-28T04:00:02;3.83;;;1.40;;
9418;SDS011;4748;50.802;7.132;2023-04-28T04:02:27;2.93;;;1.30;;
9418;SDS011;4748;50.802;7.132;2023-04-28T04:04:53;2.30;;;1.00;;
9418;SDS011;4748;50.802;7.132;2023-04-28T04:07:18;1.87;;;1.77;;
9418;SDS011;4748;50.802;7.132;2023-04-28T04:09:43;1.07;;;1.07;;
9418;SDS011;4748;50.802;7.132;2023-04-28T04:12:09;3.57;;;1.53;;
9418;SDS011;4748;50.802;7.132;2023-04-28T04:14:34;0.80;;;0.80;;
9418;SDS011;4748;50.802;7.132;2023-04-28T04:16:59;7.70;;;1.47;;
9418;SDS011;4748;50.802;7.132;2023-04-28T04:19:25;2.23;;;2.00;;
9418;SDS011;4748;50.802;7.132;2023-04-28T04:21:51;1.97;;;1.57;;
9418;SDS011;4748;50.802;7.132;2023-04-28T04:24:17;1.57;;;1.37;;
9418;SDS011;4748;50.802;7.132;2023-04-28T04:26:42;7.83;;;1.20;;
9418;SDS011;4748;50.802;7.132;2023-04-28T04:29:07;3.47;;;1.30;;
9418;SDS011;4748;50.802;7.132;2023-04-28T04:31:33;1.50;;;1.37;;
9418;SDS011;4748;50.802;7.132;2023-04-28T04:33:58;1.50;;;1.10;;
9418;SDS011;4748;50.802;7.132;2023-04-28T04:36:23;1.77;;;1.67;;
9418;SDS011;4748;50.802;7.132;2023-04-28T04:38:49;1.83;;;1.67;;
9418;SDS011;4748;50.802;7.132;2023-04-28T04:41:14;4.83;;;1.30;;
9418;SDS011;4748;50.802;7.132;2023-04-28T04:43:40;7.43;;;1.40;;
9418;SDS011;4748;50.802;7.132;2023-04-28T04:46:05;2.07;;;1.97;;
9418;SDS011;4748;50.802;7.132;2023-04-28T04:48:31;2.37;;;1.40;;
9418;SDS011;4748;50.802;7.132;2023-04-28T04:50:56;3.23;;;0.90;;
9418;SDS011;4748;50.802;7.132;2023-04-28T04:53:21;5.93;;;1.43;;
9418;SDS011;4748;50.802;7.132;2023-04-28T04:55:47;1.13;;;1.00;;
9418;SDS011;4748;50.802;7.132;2023-04-28T04:58:12;3.97;;;0.93;;
9418;SDS011;4748;50.802;7.132;2023-04-28T05:00:38;3.70;;;1.80;;
9418;SDS011;4748;50.802;7.132;2023-04-28T05:03:03;1.53;;;1.43;;
9418;SDS011;4748;50.802;7.132;2023-04-28T05:05:30;3.33;;;1.10;;
9418;SDS011;4748;50.802;7.132;2023-04-28T05:07:56;6.33;;;1.80;;
9418;SDS011;4748;50.802;7.132;2023-04-28T05:10:21;1.30;;;1.30;;
9418;SDS011;4748;50.802;7.132;2023-04-28T05:12:48;2.43;;;1.27;;
9418;SDS011;4748;50.802;7.132;2023-04-28T05:15:13;3.03;;;1.50;;
9418;SDS011;4748;50.802;7.132;2023-04-28T05:17:39;4.23;;;1.13;;
9418;SDS011;4748;50.802;7.132;2023-04-28T05:20:04;6.50;;;1.70;;
9418;SDS011;4748;50.802;7.132;2023-04-28T05:22:30;4.87;;;2.27;;
9418;SDS011;4748;50.802;7.132;2023-04-28T05:24:55;1.17;;;1.07;;
9418;SDS011;4748;50.802;7.132;2023-04-28T05:27:21;4.20;;;1.63;;
9418;SDS011;4748;50.802;7.132;2023-04-28T05:29:46;4.00;;;2.20;;
9418;SDS011;4748;50.802;7.132;2023-04-28T05:32:11;1.40;;;1.30;;
9418;SDS011;4748;50.802;7.132;2023-04-28T05:34:37;1.97;;;1.67;;
9418;SDS011;4748;50.802;7.132;2023-04-28T05:37:02;1.93;;;1.83;;
9418;SDS011;4748;50.802;7.132;2023-04-28T05:39:27;2.23;;;1.70;;
9418;SDS011;4748;50.802;7.132;2023-04-28T05:41:53;1.90;;;1.50;;
9418;SDS011;4748;50.802;7.132;2023-04-28T05:44:18;1.33;;;1.23;;
9418;SDS011;4748;50.802;7.132;2023-04-28T05:46:43;1.63;;;1.50;;
9418;SDS011;4748;50.802;7.132;2023-04-28T05:49:09;1.43;;;1.30;;
9418;SDS011;4748;50.802;7.132;2023-04-28T05:51:35;4.40;;;1.33;;
9418;SDS011;4748;50.802;7.132;2023-04-28T05:54:00;2.03;;;1.37;;
9418;SDS011;4748;50.802;7.132;2023-04-28T05:56:26;2.40;;;2.27;;
9418;SDS011;4748;50.802;7.132;2023-04-28T05:58:51;1.50;;;1.40;;
9418;SDS011;4748;50.802;7.132;2023-04-28T06:01:17;1.97;;;1.87;;
9418;SDS011;4748;50.802;7.132;2023-04-28T06:03:42;2.03;;;1.57;;
9418;SDS011;4748;50.802;7.132;2023-04-28T06:06:09;2.33;;;1.63;;
9418;SDS011;4748;50.802;7.132;2023-04-28T06:08:35;3.80;;;1.77;;
9418;SDS011;4748;50.802;7.132;2023-04-28T06:11:00;4.53;;;1.60;;
9418;SDS011;4748;50.802;7.132;2023-04-28T06:13:26;1.40;;;1.30;;
9418;SDS011;4748;50.802;7.132;2023-04-28T06:15:51;2.07;;;1.70;;
9418;SDS011;4748;50.802;7.132;2023-04-28T06:18:17;3.47;;;2.40;;
9418;SDS011;4748;50.802;7.132;2023-04-28T06:20:42;2.70;;;2.47;;
9418;SDS011;4748;50.802;7.132;2023-04-28T06:23:08;9.33;;;2.20;;
9418;SDS011;4748;50.802;7.132;2023-04-28T06:25:34;7.60;;;2.57;;
9418;SDS011;4748;50.802;7.132;2023-04-28T06:28:00;2.43;;;1.70;;
9418;SDS011;4748;50.802;7.132;2023-04-28T06:30:26;4.23;;;1.90;;
9418;SDS011;4748;50.802;7.132;2023-04-28T06:32:51;3.47;;;1.93;;
9418;SDS011;4748;50.802;7.132;2023-04-28T06:35:17;4.40;;;2.00;;
9418;SDS011;4748;50.802;7.132;2023-04-28T06:37:42;3.57;;;1.80;;
9418;SDS011;4748;50.802;7.132;2023-04-28T06:40:08;2.13;;;1.80;;
9418;SDS011;4748;50.802;7.132;2023-04-28T06:42:34;5.20;;;1.53;;
9418;SDS011;4748;50.802;7.132;2023-04-28T06:45:00;2.60;;;2.27;;
9418;SDS011;4748;50.802;7.132;2023-04-28T06:47:25;1.80;;;1.70;;
9418;SDS011;4748;50.802;7.132;2023-04-28T06:49:51;1.60;;;1.50;;
9418;SDS011;4748;50.802;7.132;2023-04-28T06:52:16;2.83;;;1.83;;
9418;SDS011;4748;50.802;7.132;2023-04-28T06:54:41;2.17;;;1.77;;
9418;SDS011;4748;50.802;7.132;2023-04-28T06:57:07;2.03;;;1.83;;
9418;SDS011;4748;50.802;7.132;2023-04-28T06:59:32;2.43;;;2.00;;
9418;SDS011;4748;50.802;7.132;2023-04-28T07:01:58;5.33;;;2.20;;
9418;SDS011;4748;50.802;7.132;2023-04-28T07:04:24;2.77;;;2.57;;
9418;SDS011;4748;50.802;7.132;2023-04-28T07:06:50;2.13;;;1.90;;
9418;SDS011;4748;50.802;7.132;2023-04-28T07:09:16;3.23;;;2.00;;
9418;SDS011;4748;50.802;7.132;2023-04-28T07:11:42;3.63;;;1.90;;
9418;SDS011;4748;50.802;7.132;2023-04-28T07:14:08;3.33;;;1.83;;
9418;SDS011;4748;50.802;7.132;2023-04-28T07:16:33;2.10;;;1.90;;
9418;SDS011;4748;50.802;7.132;2023-04-28T07:18:58;3.33;;;2.17;;
9418;SDS011;4748;50.802;7.132;2023-04-28T07:21:24;5.40;;;2.77;;
9418;SDS011;4748;50.802;7.132;2023-04-28T07:23:49;4.20;;;1.87;;
9418;SDS011;4748;50.802;7.132;2023-04-28T07:26:15;2.17;;;1.50;;
9418;SDS011;4748;50.802;7.132;2023-04-28T07:28:41;4.87;;;2.27;;
9418;SDS011;4748;50.802;7.132;2023-04-28T07:31:08;5.67;;;2.47;;
9418;SDS011;4748;50.802;7.132;2023-04-28T07:33:34;3.50;;;2.33;;
9418;SDS011;4748;50.802;7.132;2023-04-28T07:35:59;2.00;;;1.80;;
9418;SDS011;4748;50.802;7.132;2023-04-28T07:38:25;10.30;;;2.90;;
9418;SDS011;4748;50.802;7.132;2023-04-28T07:40:50;1.93;;;1.80;;
9418;SDS011;4748;50.802;7.132;2023-04-28T07:43:16;3.97;;;2.30;;
9418;SDS011;4748;50.802;7.132;2023-04-28T07:45:41;1.97;;;1.80;;
9418;SDS011;4748;50.802;7.132;2023-04-28T07:48:09;2.00;;;1.87;;
9418;SDS011;4748;50.802;7.132;2023-04-28T07:50:35;2.30;;;1.90;;
9418;SDS011;4748;50.802;7.132;2023-04-28T07:53:00;1.63;;;1.47;;
9418;SDS011;4748;50.802;7.132;2023-04-28T07:55:25;2.43;;;1.60;;
9418;SDS011;4748;50.802;7.132;2023-04-28T07:57:51;4.90;;;1.73;;
9418;SDS011;4748;50.802;7.132;2023-04-28T08:00:16;2.17;;;2.00;;
9418;SDS011;4748;50.802;7.132;2023-04-28T08:02:42;2.27;;;1.70;;
9418;SDS011;4748;50.802;7.132;2023-04-28T08:05:07;3.93;;;2.10;;
9418;SDS011;4748;50.802;7.132;2023-04-28T08:07:33;2.90;;;1.73;;
9418;SDS011;4748;50.802;7.132;2023-04-28T08:09:59;1.73;;;1.63;;
9418;SDS011;4748;50.802;7.132;2023-04-28T08:12:25;1.83;;;1.80;;
9418;SDS011;4748;50.802;7.132;2023-04-28T08:14:51;3.23;;;2.07;;
9418;SDS011;4748;50.802;7.132;2023-04-28T08:17:16;2.13;;;1.77;;
9418;SDS011;4748;50.802;7.132;2023-04-28T08:19:42;13.83;;;2.20;;
9418;SDS011;4748;50.802;7.132;2023-04-28T08:22:10;1.70;;;1.60;;
9418;SDS011;4748;50.802;7.132;2023-04-28T08:24:35;6.70;;;1.90;;
9418;SDS011;4748;50.802;7.132;2023-04-28T08:27:01;8.10;;;2.40;;
9418;SDS011;4748;50.802;7.132;2023-04-28T08:29:29;3.33;;;1.67;;
9418;SDS011;4748;50.802;7.132;2023-04-28T08:31:56;5.73;;;2.57;;
9418;SDS011;4748;50.802;7.132;2023-04-28T08:34:21;3.63;;;1.93;;
9418;SDS011;4748;50.802;7.132;2023-04-28T08:36:47;5.73;;;1.67;;
9418;SDS011;4748;50.802;7.132;2023-04-28T08:39:12;2.07;;;1.70;;
9418;SDS011;4748;50.802;7.132;2023-04-28T08:41:38;5.43;;;2.27;;
9418;SDS011;4748;50.802;7.132;2023-04-28T08:44:07;2.27;;;2.17;;
9418;SDS011;4748;50.802;7.132;2023-04-28T08:46:33;1.80;;;1.70;;
9418;SDS011;4748;50.802;7.132;2023-04-28T08:48:59;2.93;;;1.97;;
9418;SDS011;4748;50.802;7.132;2023-04-28T08:51:33;3.43;;;2.10;;
9418;SDS011;4748;50.802;7.132;2023-04-28T08:54:02;1.73;;;1.63;;
9418;SDS011;4748;50.802;7.132;2023-04-28T08:56:30;1.60;;;1.50;;
9418;SDS011;4748;50.802;7.132;2023-04-28T08:59:00;6.17;;;1.87;;
9418;SDS011;4748;50.802;7.132;2023-04-28T09:01:26;3.23;;;1.60;;
9418;SDS011;4748;50.802;7.132;2023-04-28T09:03:53;1.60;;;1.50;;
9418;SDS011;4748;50.802;7.132;2023-04-28T09:06:18;3.13;;;1.47;;
9418;SDS011;4748;50.802;7.132;2023-04-28T09:08:43;1.83;;;1.73;;
9418;SDS011;4748;50.802;7.132;2023-04-28T09:11:09;2.83;;;1.80;;
9418;SDS011;4748;50.802;7.132;2023-04-28T09:13:37;1.53;;;1.43;;
9418;SDS011;4748;50.802;7.132;2023-04-28T09:16:04;1.90;;;1.77;;
9418;SDS011;4748;50.802;7.132;2023-04-28T09:18:30;1.60;;;1.50;;
9418;SDS011;4748;50.802;7.132;2023-04-28T09:21:01;1.57;;;1.47;;
9418;SDS011;4748;50.802;7.132;2023-04-28T09:23:28;4.40;;;1.83;;
9418;SDS011;4748;50.802;7.132;2023-04-28T09:25:57;1.67;;;1.57;;
9418;SDS011;4748;50.802;7.132;2023-04-28T09:28:30;1.40;;;1.30;;
9418;SDS011;4748;50.802;7.132;2023-04-28T09:30:57;4.00;;;2.10;;
9418;SDS011;4748;50.802;7.132;2023-04-28T09:33:22;3.27;;;2.30;;
9418;SDS011;4748;50.802;7.132;2023-04-28T09:35:48;1.53;;;1.50;;
9418;SDS011;4748;50.802;7.132;2023-04-28T09:38:14;4.13;;;1.90;;
9418;SDS011;4748;50.802;7.132;2023-04-28T09:45:54;5.30;;;2.13;;
9418;SDS011;4748;50.802;7.132;2023-04-28T09:50:53;1.93;;;1.27;;
9418;SDS011;4748;50.802;7.132;2023-04-28T09:53:23;1.73;;;1.07;;
9418;SDS011;4748;50.802;7.132;2023-04-28T09:55:50;2.40;;;1.33;;
9418;SDS011;4748;50.802;7.132;2023-04-28T09:58:18;1.17;;;1.17;;
9418;SDS011;4748;50.802;7.132;2023-04-28T10:00:44;1.73;;;1.50;;
9418;SDS011;4748;50.802;7.132;2023-04-28T10:03:11;5.00;;;1.33;;
9418;SDS011;4748;50.802;7.132;2023-04-28T10:05:38;2.03;;;1.53;;
9418;SDS011;4748;50.802;7.132;2023-04-28T10:08:04;1.77;;;1.53;;
9418;SDS011;4748;50.802;7.132;2023-04-28T10:10:30;1.47;;;1.37;;
9418;SDS011;4748;50.802;7.132;2023-04-28T10:12:55;1.57;;;1.47;;
9418;SDS011;4748;50.802;7.132;2023-04-28T10:15:21;1.80;;;1.43;;
9418;SDS011;4748;50.802;7.132;2023-04-28T10:17:47;4.53;;;1.20;;
9418;SDS011;4748;50.802;7.132;2023-04-28T10:20:14;6.30;;;1.77;;
9418;SDS011;4748;50.802;7.132;2023-04-28T10:25:40;4.47;;;1.63;;
9418;SDS011;4748;50.802;7.132;2023-04-28T10:28:07;1.50;;;1.40;;
9418;SDS011;4748;50.802;7.132;2023-04-28T10:30:33;3.30;;;2.07;;
9418;SDS011;4748;50.802;7.132;2023-04-28T10:33:21;3.80;;;1.83;;
9418;SDS011;4748;50.802;7.132;2023-04-28T10:35:49;1.53;;;1.47;;
9418;SDS011;4748;50.802;7.132;2023-04-28T10:38:15;2.37;;;2.07;;
9418;SDS011;4748;50.802;7.132;2023-04-28T10:40:42;1.90;;;1.73;;
9418;SDS011;4748;50.802;7.132;2023-04-28T10:43:13;2.07;;;1.90;;
9418;SDS011;4748;50.802;7.132;2023-04-28T10:54:13;3.47;;;1.60;;
9418;SDS011;4748;50.802;7.132;2023-04-28T10:56:20;2.30;;;2.07;;
9418;SDS011;4748;50.802;7.132;2023-04-28T10:58:51;2.80;;;2.10;;
9418;SDS011;4748;50.802;7.132;2023-04-28T11:16:50;2.57;;;2.33;;
9418;SDS011;4748;50.802;7.132;2023-04-28T11:22:02;3.47;;;2.50;;
9418;SDS011;4748;50.802;7.132;2023-04-28T11:27:22;2.90;;;2.43;;
9418;SDS011;4748;50.802;7.132;2023-04-28T11:29:48;3.90;;;2.13;;
9418;SDS011;4748;50.802;7.132;2023-04-28T11:32:14;1.70;;;1.60;;
9418;SDS011;4748;50.802;7.132;2023-04-28T11:34:40;1.70;;;1.60;;
9418;SDS011;4748;50.802;7.132;2023-04-28T11:37:06;1.70;;;1.60;;
9418;SDS011;4748;50.802;7.132;2023-04-28T11:39:32;2.20;;;2.03;;
9418;SDS011;4748;50.802;7.132;2023-04-28T11:42:00;2.30;;;1.83;;
9418;SDS011;4748;50.802;7.132;2023-04-28T11:44:27;2.35;;;1.65;;
9418;SDS011;4748;50.802;7.132;2023-04-28T11:46:55;5.28;;;1.85;;
9418;SDS011;4748;50.802;7.132;2023-04-28T11:49:43;2.65;;;1.45;;
9418;SDS011;4748;50.802;7.132;2023-04-28T11:52:09;2.25;;;1.77;;
9418;SDS011;4748;50.802;7.132;2023-04-28T11:54:35;1.77;;;1.67;;
9418;SDS011;4748;50.802;7.132;2023-04-28T11:57:02;2.00;;;1.90;;
9418;SDS011;4748;50.802;7.132;2023-04-28T11:59:32;1.90;;;1.80;;
9418;SDS011;4748;50.802;7.132;2023-04-28T12:02:00;1.20;;;1.20;;
9418;SDS011;4748;50.802;7.132;2023-04-28T12:07:00;2.38;;;1.90;;
9418;SDS011;4748;50.802;7.132;2023-04-28T12:09:27;1.40;;;1.27;;
9418;SDS011;4748;50.802;7.132;2023-04-28T12:11:53;3.08;;;1.95;;
9418;SDS011;4748;50.802;7.132;2023-04-28T12:14:21;1.20;;;1.20;;
9418;SDS011;4748;50.802;7.132;2023-04-28T12:16:46;1.23;;;1.15;;
9418;SDS011;4748;50.802;7.132;2023-04-28T12:19:13;1.30;;;1.30;;
9418;SDS011;4748;50.802;7.132;2023-04-28T12:21:39;0.90;;;0.90;;
9418;SDS011;4748;50.802;7.132;2023-04-28T12:24:14;1.92;;;1.83;;
9418;SDS011;4748;50.802;7.132;2023-04-28T12:26:41;1.08;;;1.08;;
9418;SDS011;4748;50.802;7.132;2023-04-28T12:29:06;1.48;;;1.30;;
9418;SDS011;4748;50.802;7.132;2023-04-28T12:31:47;2.00;;;1.30;;
9418;SDS011;4748;50.802;7.132;2023-04-28T12:34:13;3.78;;;1.17;;
9418;SDS011;4748;50.802;7.132;2023-04-28T12:36:39;1.48;;;1.38;;
9418;SDS011;4748;50.802;7.132;2023-04-28T12:39:05;1.00;;;1.00;;
9418;SDS011;4748;50.802;7.132;2023-04-28T12:41:30;1.27;;;1.27;;
9418;SDS011;4748;50.802;7.132;2023-04-28T12:43:56;2.13;;;1.25;;
9418;SDS011;4748;50.802;7.132;2023-04-28T12:46:21;1.23;;;1.23;;
9418;SDS011;4748;50.802;7.132;2023-04-28T12:48:47;0.80;;;0.80;;
9418;SDS011;4748;50.802;7.132;2023-04-28T12:51:12;2.63;;;2.40;;
9418;SDS011;4748;50.802;7.132;2023-04-28T12:53:38;1.83;;;1.73;;
9418;SDS011;4748;50.802;7.132;2023-04-28T12:56:03;1.23;;;1.23;;
9418;SDS011;4748;50.802;7.132;2023-04-28T12:58:29;1.25;;;1.02;;
9418;SDS011;4748;50.802;7.132;2023-04-28T13:00:54;1.20;;;1.20;;
9418;SDS011;4748;50.802;7.132;2023-04-28T13:03:19;1.15;;;1.15;;
9418;SDS011;4748;50.802;7.132;2023-04-28T13:05:45;1.67;;;0.85;;
9418;SDS011;4748;50.802;7.132;2023-04-28T13:08:10;0.80;;;0.80;;
9418;SDS011;4748;50.802;7.132;2023-04-28T13:10:36;3.40;;;1.10;;
9418;SDS011;4748;50.802;7.132;2023-04-28T13:13:03;1.27;;;1.27;;
9418;SDS011;4748;50.802;7.132;2023-04-28T13:15:29;3.53;;;1.48;;
9418;SDS011;4748;50.802;7.132;2023-04-28T13:17:55;2.53;;;1.10;;
9418;SDS011;4748;50.802;7.132;2023-04-28T13:20:21;1.20;;;1.02;;
9418;SDS011;4748;50.802;7.132;2023-04-28T13:22:46;0.95;;;0.95;;
9418;SDS011;4748;50.802;7.132;2023-04-28T13:25:11;1.27;;;1.05;;
9418;SDS011;4748;50.802;7.132;2023-04-28T13:27:37;1.02;;;1.02;;
9418;SDS011;4748;50.802;7.132;2023-04-28T13:30:02;0.77;;;0.75;;
9418;SDS011;4748;50.802;7.132;2023-04-28T13:32:29;1.10;;;1.00;;
9418;SDS011;4748;50.802;7.132;2023-04-28T13:34:55;3.53;;;1.20;;
9418;SDS011;4748;50.802;7.132;2023-04-28T13:37:21;1.20;;;1.20;;
9418;SDS011;4748;50.802;7.132;2023-04-28T13:39:46;1.13;;;1.13;;
9418;SDS011;4748;50.802;7.132;2023-04-28T13:42:11;1.25;;;1.13;;
9418;SDS011;4748;50.802;7.132;2023-04-28T13:44:37;1.23;;;1.13;;
9418;SDS011;4748;50.802;7.132;2023-04-28T13:47:02;1.27;;;1.23;;
9418;SDS011;4748;50.802;7.132;2023-04-28T13:49:30;1.83;;;1.55;;
9418;SDS011;4748;50.802;7.132;2023-04-28T13:51:55;1.20;;;1.10;;
9418;SDS011;4748;50.802;7.132;2023-04-28T13:54:21;1.83;;;1.73;;
9418;SDS011;4748;50.802;7.132;2023-04-28T13:56:47;1.05;;;1.00;;
9418;SDS011;4748;50.802;7.132;2023-04-28T13:59:13;1.05;;;1.05;;
9418;SDS011;4748;50.802;7.132;2023-04-28T14:01:38;1.13;;;1.13;;
9418;SDS011;4748;50.802;7.132;2023-04-28T14:04:04;1.70;;;1.30;;
9418;SDS011;4748;50.802;7.132;2023-04-28T14:06:29;1.25;;;1.15;;
9418;SDS011;4748;50.802;7.132;2023-04-28T14:08:55;0.95;;;0.95;;
9418;SDS011;4748;50.802;7.132;2023-04-28T14:11:20;1.30;;;1.30;;
9418;SDS011;4748;50.802;7.132;2023-04-28T14:13:46;1.45;;;1.42;;
9418;SDS011;4748;50.802;7.132;2023-04-28T14:16:11;1.88;;;1.60;;
9418;SDS011;4748;50.802;7.132;2023-04-28T14:18:37;1.20;;;1.20;;
9418;SDS011;4748;50.802;7.132;2023-04-28T14:21:02;1.23;;;1.20;;
9418;SDS011;4748;50.802;7.132;2023-04-28T14:23:31;2.90;;;1.30;;
9418;SDS011;4748;50.802;7.132;2023-04-28T14:25:57;1.30;;;1.20;;
9418;SDS011;4748;50.802;7.132;2023-04-28T14:28:23;1.38;;;1.30;;
9418;SDS011;4748;50.802;7.132;2023-04-28T14:30:48;1.45;;;1.40;;
9418;SDS011;4748;50.802;7.132;2023-04-28T14:33:16;2.33;;;2.22;;
9418;SDS011;4748;50.802;7.132;2023-04-28T14:35:41;3.58;;;2.78;;
9418;SDS011;4748;50.802;7.132;2023-04-28T14:38:07;3.80;;;3.47;;
9418;SDS011;4748;50.802;7.132;2023-04-28T14:40:32;6.75;;;3.03;;
9418;SDS011;4748;50.802;7.132;2023-04-28T14:42:58;2.35;;;2.20;;
9418;SDS011;4748;50.802;7.132;2023-04-28T14:45:23;2.47;;;2.38;;
9418;SDS011;4748;50.802;7.132;2023-04-28T14:47:48;2.95;;;2.75;;
9418;SDS011;4748;50.802;7.132;2023-04-28T14:50:14;2.42;;;2.17;;
9418;SDS011;4748;50.802;7.132;2023-04-28T14:52:40;1.60;;;1.60;;
9418;SDS011;4748;50.802;7.132;2023-04-28T14:55:06;2.03;;;1.90;;
9418;SDS011;4748;50.802;7.132;2023-04-28T14:57:32;2.10;;;1.90;;
9418;SDS011;4748;50.802;7.132;2023-04-28T14:59:58;2.70;;;1.80;;
9418;SDS011;4748;50.802;7.132;2023-04-28T15:02:24;1.35;;;1.35;;
9418;SDS011;4748;50.802;7.132;2023-04-28T15:04:54;1.38;;;0.85;;
9418;SDS011;4748;50.802;7.132;2023-04-28T15:07:20;1.02;;;1.02;;
9418;SDS011;4748;50.802;7.132;2023-04-28T15:09:46;3.72;;;0.80;;
9418;SDS011;4748;50.802;7.132;2023-04-28T15:12:12;0.80;;;0.80;;
9418;SDS011;4748;50.802;7.132;2023-04-28T15:14:37;0.20;;;0.20;;
9418;SDS011;4748;50.802;7.132;2023-04-28T15:17:02;1.98;;;0.20;;
9418;SDS011;4748;50.802;7.132;2023-04-28T15:19:28;1.75;;;0.20;;
9418;SDS011;4748;50.802;7.132;2023-04-28T15:21:55;0.22;;;0.22;;
9418;SDS011;4748;50.802;7.132;2023-04-28T15:24:20;0.20;;;0.20;;
9418;SDS011;4748;50.802;7.132;2023-04-28T15:26:46;2.15;;;0.30;;
9418;SDS011;4748;50.802;7.132;2023-04-28T15:29:11;2.85;;;0.30;;
9418;SDS011;4748;50.802;7.132;2023-04-28T15:31:37;0.32;;;0.32;;
9418;SDS011;4748;50.802;7.132;2023-04-28T15:34:04;0.30;;;0.30;;
9418;SDS011;4748;50.802;7.132;2023-04-28T15:36:29;0.20;;;0.20;;
9418;SDS011;4748;50.802;7.132;2023-04-28T15:38:54;0.90;;;0.20;;
9418;SDS011;4748;50.802;7.132;2023-04-28T15:41:20;0.30;;;0.30;;
9418;SDS011;4748;50.802;7.132;2023-04-28T15:43:45;0.30;;;0.30;;
9418;SDS011;4748;50.802;7.132;2023-04-28T15:46:11;2.35;;;0.30;;
9418;SDS011;4748;50.802;7.132;2023-04-28T15:48:39;0.20;;;0.20;;
9418;SDS011;4748;50.802;7.132;2023-04-28T15:51:05;0.55;;;0.38;;